createdAt,value
2018-10-05T00:00:20.841Z,5.45
2018-10-05T00:02:49.052Z,6.00
2018-10-05T00:05:17.297Z,5.30
2018-10-05T00:07:45.485Z,5.17
2018-10-05T00:10:13.705Z,6.45
2018-10-05T00:12:41.918Z,7.45
2018-10-05T00:15:10.228Z,6.90
2018-10-05T00:17:38.388Z,7.05
2018-10-05T00:20:06.637Z,5.62
2018-10-05T00:22:34.867Z,6.40
2018-10-05T00:25:03.128Z,6.78
2018-10-05T00:27:31.331Z,8.58
2018-10-05T00:29:59.497Z,7.05
2018-10-05T00:32:27.772Z,6.53
2018-10-05T00:34:55.918Z,6.22
2018-10-05T00:37:24.104Z,6.12
2018-10-05T00:39:52.309Z,5.95
2018-10-05T00:42:20.520Z,5.65
2018-10-05T00:44:48.791Z,6.65
2018-10-05T00:47:16.964Z,5.45
2018-10-05T00:49:45.171Z,6.00
2018-10-05T00:52:13.421Z,5.85
2018-10-05T00:54:41.595Z,5.58
2018-10-05T00:57:09.804Z,5.75
2018-10-05T00:59:37.981Z,5.72
2018-10-05T01:02:06.492Z,5.10
2018-10-05T01:04:34.672Z,5.17
2018-10-05T01:07:02.940Z,5.05
2018-10-05T01:09:31.252Z,6.35
2018-10-05T01:11:59.417Z,6.58
2018-10-05T01:14:27.687Z,6.47
2018-10-05T01:16:55.966Z,6.20
2018-10-05T01:19:24.276Z,5.05
2018-10-05T01:21:52.526Z,6.08
2018-10-05T01:24:20.699Z,6.45
2018-10-05T01:26:48.940Z,6.47
2018-10-05T01:29:17.088Z,7.80
2018-10-05T01:31:45.329Z,6.90
2018-10-05T01:34:13.505Z,7.10
2018-10-05T01:36:41.700Z,6.22
2018-10-05T01:39:09.906Z,6.67
2018-10-05T01:41:38.072Z,6.58
2018-10-05T01:44:06.314Z,5.87
2018-10-05T01:46:34.585Z,6.37
2018-10-05T01:49:03.043Z,6.90
2018-10-05T01:51:35.962Z,5.50
2018-10-05T01:54:05.057Z,5.60
2018-10-05T01:56:33.957Z,5.50
2018-10-05T01:59:02.317Z,6.25
2018-10-05T02:01:31.412Z,5.78
2018-10-05T02:03:59.585Z,6.85
2018-10-05T02:06:27.875Z,6.78
2018-10-05T02:08:56.106Z,6.75
2018-10-05T02:11:24.290Z,6.65
2018-10-05T02:13:52.501Z,6.95
2018-10-05T02:16:20.674Z,8.20
2018-10-05T02:18:48.889Z,7.00
2018-10-05T02:21:17.069Z,7.62
2018-10-05T02:23:45.269Z,7.37
2018-10-05T02:26:13.544Z,8.45
2018-10-05T02:28:41.708Z,8.58
2018-10-05T02:31:09.928Z,7.80
2018-10-05T02:33:38.104Z,7.85
2018-10-05T02:36:06.745Z,8.00
2018-10-05T02:38:34.933Z,8.55
2018-10-05T02:41:03.524Z,7.80
2018-10-05T02:43:31.736Z,8.23
2018-10-05T02:45:59.971Z,7.62
2018-10-05T02:48:28.139Z,8.53
2018-10-05T02:50:56.432Z,7.47
2018-10-05T02:53:24.822Z,8.68
2018-10-05T02:55:53.022Z,8.95
2018-10-05T02:58:21.225Z,9.83
2018-10-05T03:01:00.395Z,8.40
2018-10-05T03:03:28.580Z,9.18
2018-10-05T03:05:56.764Z,8.85
2018-10-05T03:08:25.022Z,9.78
2018-10-05T03:10:53.184Z,9.20
2018-10-05T03:13:21.408Z,8.70
2018-10-05T03:15:49.720Z,9.35
2018-10-05T03:18:17.937Z,9.15
2018-10-05T03:20:46.174Z,7.70
2018-10-05T03:23:14.352Z,8.05
2018-10-05T03:25:42.602Z,8.58
2018-10-05T03:28:10.797Z,9.28
2018-10-05T03:30:38.996Z,6.22
2018-10-05T03:33:07.220Z,5.35
2018-10-05T03:35:35.425Z,6.67
2018-10-05T03:38:03.691Z,7.00
2018-10-05T03:40:31.854Z,8.53
2018-10-05T03:43:00.102Z,9.03
2018-10-05T03:45:29.251Z,9.70
2018-10-05T03:47:57.413Z,8.65
2018-10-05T03:50:25.624Z,8.03
2018-10-05T03:52:53.921Z,8.68
2018-10-05T03:55:22.135Z,9.50
2018-10-05T03:57:50.332Z,8.78
2018-10-05T04:00:18.852Z,9.65
2018-10-05T04:02:47.037Z,8.83
2018-10-05T04:05:15.241Z,8.38
2018-10-05T04:07:43.522Z,8.53
2018-10-05T04:10:11.726Z,9.65
2018-10-05T04:12:39.928Z,9.90
2018-10-05T04:15:08.137Z,10.88
2018-10-05T04:17:36.292Z,12.07
2018-10-05T04:20:04.516Z,10.88
2018-10-05T04:22:32.676Z,11.43
2018-10-05T04:25:00.874Z,9.50
2018-10-05T04:27:29.104Z,10.82
2018-10-05T04:29:57.310Z,10.40
2018-10-05T04:32:25.850Z,9.43
2018-10-05T04:34:54.028Z,9.53
2018-10-05T04:37:22.269Z,10.55
2018-10-05T04:39:50.503Z,9.53
2018-10-05T04:42:18.736Z,10.93
2018-10-05T04:44:47.619Z,9.90
2018-10-05T04:47:15.854Z,8.90
2018-10-05T04:49:44.158Z,7.83
2018-10-05T04:52:12.277Z,9.75
2018-10-05T04:54:40.482Z,9.80
2018-10-05T04:57:08.689Z,8.55
2018-10-05T04:59:38.050Z,9.15
2018-10-05T05:02:06.288Z,7.47
2018-10-05T05:04:34.455Z,7.60
2018-10-05T05:07:02.670Z,7.70
2018-10-05T05:09:30.845Z,8.25
2018-10-05T05:11:59.130Z,8.88
2018-10-05T05:14:27.347Z,8.43
2018-10-05T05:16:55.528Z,6.97
2018-10-05T05:19:23.726Z,8.15
2018-10-05T05:21:51.954Z,8.20
2018-10-05T05:24:26.946Z,8.05
2018-10-05T05:26:58.138Z,9.73
2018-10-05T05:29:26.365Z,8.45
2018-10-05T05:31:54.561Z,9.80
2018-10-05T05:34:22.781Z,10.68
2018-10-05T05:36:51.513Z,8.05
2018-10-05T05:39:19.721Z,9.05
2018-10-05T05:41:47.991Z,10.15
2018-10-05T05:44:16.232Z,8.78
2018-10-05T05:46:44.427Z,9.48
2018-10-05T05:49:12.617Z,8.73
2018-10-05T05:51:40.808Z,8.98
2018-10-05T05:54:09.197Z,8.83
2018-10-05T05:56:37.396Z,9.40
2018-10-05T05:59:05.588Z,8.33
2018-10-05T06:01:33.801Z,9.65
2018-10-05T06:04:02.010Z,9.15
2018-10-05T06:06:30.217Z,8.50
2018-10-05T06:08:58.428Z,10.43
2018-10-05T06:11:26.661Z,8.20
2018-10-05T06:13:54.924Z,9.98
2018-10-05T06:16:23.218Z,10.15
2018-10-05T06:18:51.366Z,9.60
2018-10-05T06:21:19.982Z,9.35
2018-10-05T06:23:48.217Z,9.08
2018-10-05T06:26:16.445Z,8.43
2018-10-05T06:28:44.783Z,9.98
2018-10-05T06:31:13.488Z,9.20
2018-10-05T06:33:41.961Z,9.33
2018-10-05T06:36:10.188Z,9.60
2018-10-05T06:38:38.787Z,9.55
2018-10-05T06:41:07.039Z,9.20
2018-10-05T06:43:35.240Z,8.90
2018-10-05T06:46:03.880Z,8.85
2018-10-05T06:48:32.742Z,9.73
2018-10-05T06:51:01.426Z,9.98
2018-10-05T06:53:30.243Z,9.63
2018-10-05T06:55:59.237Z,9.73
2018-10-05T06:58:27.978Z,8.90
2018-10-05T07:00:56.958Z,8.80
2018-10-05T07:03:25.651Z,8.15
2018-10-05T07:05:54.726Z,8.40
2018-10-05T07:08:22.927Z,8.25
2018-10-05T07:10:51.142Z,8.33
2018-10-05T07:13:19.349Z,9.68
2018-10-05T07:15:47.538Z,8.40
2018-10-05T07:18:15.773Z,7.67
2018-10-05T07:20:43.978Z,7.87
2018-10-05T07:23:12.211Z,9.07
2018-10-05T07:25:40.368Z,8.20
2018-10-05T07:28:08.642Z,7.23
2018-10-05T07:30:36.868Z,7.10
2018-10-05T07:33:05.080Z,8.47
2018-10-05T07:35:33.293Z,8.30
2018-10-05T07:38:01.453Z,8.00
2018-10-05T07:40:29.701Z,6.50
2018-10-05T07:42:57.912Z,7.97
2018-10-05T07:45:26.137Z,7.63
2018-10-05T07:47:54.885Z,8.87
2018-10-05T07:50:23.541Z,7.63
2018-10-05T07:52:52.544Z,7.23
2018-10-05T07:55:21.347Z,6.63
2018-10-05T07:57:50.049Z,8.40
2018-10-05T08:00:18.785Z,7.87
2018-10-05T08:02:46.957Z,6.07
2018-10-05T08:05:15.197Z,7.77
2018-10-05T08:07:43.391Z,6.90
2018-10-05T08:10:11.613Z,7.07
2018-10-05T08:12:39.814Z,6.77
2018-10-05T08:15:08.002Z,7.10
2018-10-05T08:17:36.217Z,6.00
2018-10-05T08:20:04.521Z,6.77
2018-10-05T08:22:33.881Z,6.70
2018-10-05T08:25:02.393Z,6.40
2018-10-05T08:27:30.658Z,6.30
2018-10-05T08:29:58.920Z,6.37
2018-10-05T08:32:27.106Z,6.20
2018-10-05T08:34:55.306Z,5.50
2018-10-05T08:37:23.590Z,5.57
2018-10-05T08:39:51.905Z,6.27
2018-10-05T08:42:20.058Z,6.30
2018-10-05T08:44:48.249Z,6.03
2018-10-05T08:47:16.518Z,5.20
2018-10-05T08:49:45.287Z,5.80
2018-10-05T08:52:13.535Z,5.87
2018-10-05T08:54:41.705Z,5.33
2018-10-05T08:57:09.917Z,5.70
2018-10-05T08:59:38.140Z,4.70
2018-10-05T09:02:06.329Z,5.37
2018-10-05T09:04:34.517Z,5.83
2018-10-05T09:07:02.832Z,6.37
2018-10-05T09:09:31.233Z,5.73
2018-10-05T09:11:59.496Z,5.80
2018-10-05T09:14:27.656Z,6.40
2018-10-05T09:16:55.917Z,5.20
2018-10-05T09:19:24.122Z,4.67
2018-10-05T09:21:52.274Z,4.20
2018-10-05T09:24:20.480Z,4.57
2018-10-05T09:26:48.645Z,4.83
2018-10-05T09:29:16.907Z,5.90
2018-10-05T09:31:45.129Z,5.00
2018-10-05T09:34:13.357Z,5.67
2018-10-05T09:36:41.569Z,5.10
2018-10-05T09:39:09.732Z,4.50
2018-10-05T09:41:37.985Z,4.43
2018-10-05T09:44:06.157Z,4.47
2018-10-05T09:46:34.426Z,3.73
2018-10-05T09:49:02.641Z,4.50
2018-10-05T09:51:30.878Z,3.17
2018-10-05T09:53:59.163Z,3.73
2018-10-05T09:56:27.335Z,4.00
2018-10-05T09:58:55.561Z,4.03
2018-10-05T10:01:29.119Z,4.00
2018-10-05T10:03:57.337Z,4.50
2018-10-05T10:06:25.549Z,4.27
2018-10-05T10:08:53.793Z,4.13
2018-10-05T10:11:22.012Z,4.37
2018-10-05T10:13:50.272Z,4.47
2018-10-05T10:16:18.494Z,3.20
2018-10-05T10:18:46.721Z,3.30
2018-10-05T10:21:14.889Z,3.57
2018-10-05T10:23:43.082Z,3.03
2018-10-05T10:26:11.273Z,3.03
2018-10-05T10:28:39.637Z,3.77
2018-10-05T10:31:07.826Z,3.20
2018-10-05T10:33:35.995Z,3.80
2018-10-05T10:36:04.274Z,3.20
2018-10-05T10:38:32.449Z,3.60
2018-10-05T10:41:00.685Z,4.73
2018-10-05T10:43:28.881Z,3.60
2018-10-05T10:45:57.117Z,3.67
2018-10-05T10:48:25.313Z,2.87
2018-10-05T10:50:53.537Z,3.07
2018-10-05T10:53:21.761Z,3.60
2018-10-05T10:55:49.978Z,3.50
2018-10-05T10:58:18.149Z,3.27
2018-10-05T11:00:46.450Z,2.63
2018-10-05T11:03:14.598Z,2.67
2018-10-05T11:05:42.853Z,3.17
2018-10-05T11:08:11.036Z,3.00
2018-10-05T11:10:39.332Z,2.43
2018-10-05T11:13:07.565Z,3.20
2018-10-05T11:15:35.748Z,2.77
2018-10-05T11:18:03.965Z,3.30
2018-10-05T11:20:32.140Z,3.10
2018-10-05T11:23:00.336Z,3.27
2018-10-05T11:25:28.521Z,2.77
2018-10-05T11:27:56.731Z,2.80
2018-10-05T11:30:24.960Z,2.80
2018-10-05T11:32:53.125Z,2.97
2018-10-05T11:35:21.312Z,2.20
2018-10-05T11:37:49.516Z,2.57
2018-10-05T11:40:17.728Z,2.43
2018-10-05T11:42:45.948Z,2.27
2018-10-05T11:45:14.116Z,2.40
2018-10-05T11:47:42.329Z,2.60
2018-10-05T11:50:10.498Z,2.20
2018-10-05T11:52:38.720Z,2.23
2018-10-05T11:55:06.907Z,2.50
2018-10-05T11:57:35.103Z,2.67
2018-10-05T12:00:03.414Z,2.63
2018-10-05T12:02:31.667Z,2.00
2018-10-05T12:04:59.901Z,2.07
2018-10-05T12:07:28.064Z,2.47
2018-10-05T12:09:56.260Z,2.10
2018-10-05T12:12:24.492Z,2.37
2018-10-05T12:14:52.700Z,2.10
2018-10-05T12:17:20.934Z,2.80
2018-10-05T12:19:49.194Z,2.73
2018-10-05T12:22:17.385Z,2.00
2018-10-05T12:24:45.582Z,2.40
2018-10-05T12:27:13.817Z,2.30
2018-10-05T12:29:42.058Z,2.43
2018-10-05T12:32:10.323Z,2.00
2018-10-05T12:34:38.513Z,1.73
2018-10-05T12:37:06.792Z,2.50
2018-10-05T12:39:34.989Z,2.60
2018-10-05T12:42:03.216Z,2.20
2018-10-05T12:44:31.428Z,2.00
2018-10-05T12:46:59.673Z,2.37
2018-10-05T12:49:27.878Z,2.40
2018-10-05T12:51:56.090Z,2.17
2018-10-05T12:54:24.786Z,2.43
2018-10-05T12:56:53.006Z,2.20
2018-10-05T12:59:21.309Z,2.43
2018-10-05T13:01:49.476Z,2.20
2018-10-05T13:04:17.679Z,2.47
2018-10-05T13:06:45.893Z,1.70
2018-10-05T13:09:14.136Z,2.30
2018-10-05T13:11:42.310Z,2.20
2018-10-05T13:14:10.558Z,2.17
2018-10-05T13:16:38.751Z,2.50
2018-10-05T13:19:06.974Z,2.67
2018-10-05T13:21:35.178Z,2.67
2018-10-05T13:24:04.234Z,2.50
2018-10-05T13:26:32.645Z,2.13
2018-10-05T13:29:00.872Z,2.40
2018-10-05T13:31:29.150Z,2.40
2018-10-05T13:33:57.364Z,2.77
2018-10-05T13:36:25.621Z,2.60
2018-10-05T13:38:54.060Z,2.63
2018-10-05T13:41:22.876Z,2.40
2018-10-05T13:43:51.086Z,2.13
2018-10-05T13:46:19.548Z,2.70
2018-10-05T13:48:47.773Z,2.00
2018-10-05T13:51:15.994Z,1.80
2018-10-05T13:53:44.197Z,2.37
2018-10-05T13:56:12.437Z,2.23
2018-10-05T13:58:40.622Z,2.43
2018-10-05T14:01:08.869Z,2.00
2018-10-05T14:03:37.085Z,1.97
2018-10-05T14:06:05.414Z,2.43
2018-10-05T14:08:33.621Z,2.60
2018-10-05T14:11:01.823Z,2.77
2018-10-05T14:13:30.134Z,2.60
2018-10-05T14:15:58.366Z,2.87
2018-10-05T14:18:26.561Z,2.30
2018-10-05T14:20:55.701Z,2.43
2018-10-05T14:23:23.926Z,2.60
2018-10-05T14:25:52.177Z,3.17
2018-10-05T14:28:20.378Z,2.80
2018-10-05T14:30:48.634Z,2.57
2018-10-05T14:33:16.929Z,2.57
2018-10-05T14:35:45.112Z,2.90
2018-10-05T14:38:13.334Z,2.60
2018-10-05T14:40:41.552Z,2.20
2018-10-05T14:43:09.757Z,2.70
2018-10-05T14:45:37.952Z,2.83
2018-10-05T14:48:06.165Z,2.60
2018-10-05T14:50:34.439Z,2.53
2018-10-05T14:53:02.661Z,2.70
2018-10-05T14:55:30.895Z,2.37
2018-10-05T14:57:59.090Z,2.50
2018-10-05T15:00:27.321Z,2.90
2018-10-05T15:02:55.512Z,3.40
2018-10-05T15:05:23.725Z,3.83
2018-10-05T15:07:51.948Z,3.70
2018-10-05T15:10:20.198Z,3.17
2018-10-05T15:12:48.449Z,3.17
2018-10-05T15:15:16.741Z,3.70
2018-10-05T15:17:45.026Z,3.57
2018-10-05T15:20:13.302Z,3.37
2018-10-05T15:22:41.531Z,3.80
2018-10-05T15:25:09.738Z,4.37
2018-10-05T15:27:37.909Z,3.90
2018-10-05T15:30:06.282Z,4.03
2018-10-05T15:32:34.530Z,4.33
2018-10-05T15:35:02.842Z,4.23
2018-10-05T15:37:31.086Z,4.20
2018-10-05T15:39:59.360Z,4.40
2018-10-05T15:42:27.555Z,3.80
2018-10-05T15:44:55.897Z,3.80
2018-10-05T15:47:24.121Z,3.63
2018-10-05T15:49:52.357Z,2.83
2018-10-05T15:52:20.605Z,3.60
2018-10-05T15:54:48.789Z,3.57
2018-10-05T15:57:16.997Z,3.33
2018-10-05T15:59:45.216Z,2.53
2018-10-05T16:02:13.408Z,2.60
2018-10-05T16:04:41.644Z,3.10
2018-10-05T16:07:09.922Z,2.37
2018-10-05T16:09:38.120Z,3.10
2018-10-05T16:12:06.479Z,3.20
2018-10-05T16:14:34.771Z,2.60
2018-10-05T16:17:03.024Z,3.10
2018-10-05T16:19:31.258Z,2.30
2018-10-05T16:21:59.498Z,2.80
2018-10-05T16:24:32.225Z,2.50
2018-10-05T16:27:00.544Z,2.50
2018-10-05T16:29:28.764Z,2.70
2018-10-05T16:31:56.963Z,2.23
2018-10-05T16:34:25.199Z,2.10
2018-10-05T16:36:54.077Z,2.40
2018-10-05T16:39:22.607Z,2.40
2018-10-05T16:41:50.931Z,2.70
2018-10-05T16:44:19.217Z,2.43
2018-10-05T16:46:47.614Z,1.73
2018-10-05T16:49:15.841Z,3.00
2018-10-05T16:51:44.024Z,2.67
2018-10-05T16:54:12.240Z,2.53
2018-10-05T16:56:40.476Z,3.13
2018-10-05T16:59:08.777Z,2.80
2018-10-05T17:01:37.804Z,2.87
2018-10-05T17:04:06.566Z,3.00
2018-10-05T17:06:34.781Z,2.70
2018-10-05T17:09:06.655Z,3.37
2018-10-05T17:11:36.241Z,2.93
2018-10-05T17:14:04.488Z,3.67
2018-10-05T17:16:32.706Z,2.77
2018-10-05T17:19:02.238Z,3.00
2018-10-05T17:21:33.287Z,3.03
2018-10-05T17:24:03.870Z,3.23
2018-10-05T17:26:32.765Z,3.40
2018-10-05T17:29:01.813Z,3.70
2018-10-05T17:31:30.401Z,4.13
2018-10-05T17:33:58.962Z,4.17
2018-10-05T17:36:28.099Z,4.27
2018-10-05T17:38:56.547Z,4.43
2018-10-05T17:41:24.977Z,3.70
2018-10-05T17:43:53.229Z,4.03
2018-10-05T17:46:21.557Z,3.90
2018-10-05T17:48:49.786Z,4.50
2018-10-05T17:51:18.086Z,4.53
2018-10-05T17:53:46.261Z,3.97
2018-10-05T17:56:14.860Z,4.30
2018-10-05T17:58:43.464Z,4.40
2018-10-05T18:01:11.817Z,4.90
2018-10-05T18:03:40.073Z,4.73
2018-10-05T18:06:08.353Z,3.07
2018-10-05T18:08:36.599Z,4.37
2018-10-05T18:11:04.873Z,4.13
2018-10-05T18:13:33.342Z,5.03
2018-10-05T18:16:01.737Z,7.33
2018-10-05T18:18:30.054Z,8.20
2018-10-05T18:20:58.566Z,6.67
2018-10-05T18:23:27.774Z,5.10
2018-10-05T18:25:56.857Z,5.60
2018-10-05T18:28:25.045Z,4.73
2018-10-05T18:30:53.621Z,5.70
2018-10-05T18:33:21.954Z,5.20
2018-10-05T18:35:50.920Z,4.83
2018-10-05T18:38:19.179Z,5.30
2018-10-05T18:40:47.438Z,5.30
2018-10-05T18:43:16.502Z,5.77
2018-10-05T18:45:44.821Z,5.33
2018-10-05T18:48:15.046Z,5.70
2018-10-05T18:50:44.318Z,4.70
2018-10-05T18:53:14.353Z,5.63
2018-10-05T18:55:42.914Z,4.90
2018-10-05T18:58:11.192Z,4.90
2018-10-05T19:00:39.605Z,4.87
2018-10-05T19:03:08.765Z,5.47
2018-10-05T19:05:37.274Z,4.43
2018-10-05T19:08:06.264Z,5.57
2018-10-05T19:10:34.539Z,5.80
2018-10-05T19:13:03.918Z,5.53
2018-10-05T19:15:34.261Z,5.70
2018-10-05T19:18:03.475Z,5.70
2018-10-05T19:20:33.492Z,4.93
2018-10-05T19:23:02.108Z,6.37
2018-10-05T19:25:34.474Z,5.50
2018-10-05T19:28:02.876Z,5.67
2018-10-05T19:30:31.808Z,5.43
2018-10-05T19:33:00.897Z,4.77
2018-10-05T19:35:30.029Z,4.90
2018-10-05T19:37:59.033Z,6.00
2018-10-05T19:40:28.181Z,5.73
2018-10-05T19:42:56.405Z,6.23
2018-10-05T19:45:24.636Z,6.20
2018-10-05T19:47:54.112Z,6.20
2018-10-05T19:50:22.345Z,5.80
2018-10-05T19:52:50.970Z,6.13
2018-10-05T19:55:19.240Z,5.20
2018-10-05T19:57:47.587Z,5.53
2018-10-05T20:00:16.116Z,6.20
2018-10-05T20:02:47.641Z,6.57
2018-10-05T20:05:16.023Z,6.37
2018-10-05T20:07:44.474Z,5.90
2018-10-05T20:10:12.687Z,6.77
2018-10-05T20:12:41.936Z,5.50
2018-10-05T20:15:10.179Z,6.20
2018-10-05T20:17:38.429Z,5.57
2018-10-05T20:20:06.772Z,5.80
2018-10-05T20:22:35.073Z,5.57
2018-10-05T20:25:07.280Z,5.73
2018-10-05T20:27:36.284Z,6.40
2018-10-05T20:30:05.141Z,6.57
2018-10-05T20:32:33.432Z,6.53
2018-10-05T20:35:01.638Z,7.20
2018-10-05T20:37:30.115Z,7.03
2018-10-05T20:39:58.245Z,6.67
2018-10-05T20:42:26.557Z,6.63
2018-10-05T20:44:55.357Z,6.20
2018-10-05T20:47:23.790Z,6.43
2018-10-05T20:49:52.061Z,5.60
2018-10-05T20:52:20.347Z,5.63
2018-10-05T20:54:48.604Z,5.80
2018-10-05T20:57:16.849Z,6.10
2018-10-05T20:59:45.053Z,4.80
2018-10-05T21:02:13.301Z,4.80
2018-10-05T21:04:41.525Z,5.10
2018-10-05T21:07:09.785Z,5.00
2018-10-05T21:09:38.016Z,4.80
2018-10-05T21:12:06.313Z,3.97
2018-10-05T21:14:34.509Z,4.40
2018-10-05T21:17:02.678Z,4.70
2018-10-05T21:19:30.885Z,5.00
2018-10-05T21:21:59.181Z,4.80
2018-10-05T21:24:30.254Z,5.17
2018-10-05T21:26:58.529Z,6.37
2018-10-05T21:29:26.712Z,6.03
2018-10-05T21:31:54.941Z,5.60
2018-10-05T21:34:23.162Z,6.23
2018-10-05T21:36:51.336Z,6.60
2018-10-05T21:39:19.549Z,6.77
2018-10-05T21:41:47.729Z,7.37
2018-10-05T21:44:15.912Z,7.63
2018-10-05T21:46:44.173Z,7.70
2018-10-05T21:49:12.866Z,6.87
2018-10-05T21:51:41.626Z,8.37
2018-10-05T21:54:10.272Z,7.00
2018-10-05T21:56:39.031Z,7.60
2018-10-05T21:59:07.853Z,7.93
2018-10-05T22:01:36.532Z,7.07
2018-10-05T22:04:05.307Z,7.70
2018-10-05T22:06:33.940Z,6.43
2018-10-05T22:09:02.871Z,5.80
2018-10-05T22:11:31.529Z,5.63
2018-10-05T22:14:00.220Z,5.70
2018-10-05T22:16:28.445Z,5.47
2018-10-05T22:18:56.648Z,6.07
2018-10-05T22:21:24.857Z,5.90
2018-10-05T22:23:53.150Z,5.43
2018-10-05T22:26:21.545Z,5.07
2018-10-05T22:28:49.717Z,4.90
2018-10-05T22:31:17.921Z,5.43
2018-10-05T22:33:46.106Z,5.10
2018-10-05T22:36:14.313Z,5.07
2018-10-05T22:38:42.619Z,5.30
2018-10-05T22:41:10.853Z,5.10
2018-10-05T22:43:39.030Z,5.20
2018-10-05T22:46:07.593Z,6.07
2018-10-05T22:48:35.780Z,5.37
2018-10-05T22:51:04.029Z,4.80
2018-10-05T22:53:32.288Z,5.40
2018-10-05T22:56:00.473Z,5.90
2018-10-05T22:58:28.733Z,5.40
2018-10-05T23:00:56.926Z,5.67
2018-10-05T23:03:25.166Z,5.37
2018-10-05T23:05:53.365Z,5.90
2018-10-05T23:08:21.558Z,6.20
2018-10-05T23:10:49.765Z,6.20
2018-10-05T23:13:17.997Z,6.57
2018-10-05T23:15:46.254Z,5.67
2018-10-05T23:18:14.498Z,5.20
2018-10-05T23:20:42.685Z,6.03
2018-10-05T23:23:10.889Z,6.20
2018-10-05T23:25:39.065Z,5.27
2018-10-05T23:28:07.341Z,6.57
2018-10-05T23:30:35.545Z,4.80
2018-10-05T23:33:03.774Z,5.77
2018-10-05T23:35:31.934Z,5.60
2018-10-05T23:38:00.125Z,5.33
2018-10-05T23:40:28.324Z,5.00
2018-10-05T23:42:56.533Z,4.97
2018-10-05T23:45:24.738Z,5.17
2018-10-05T23:47:52.978Z,5.47
2018-10-05T23:50:21.272Z,6.13
2018-10-05T23:52:50.550Z,5.63
2018-10-05T23:55:19.010Z,4.80
2018-10-05T23:57:47.675Z,6.17
